Time;durP1;ratioP1;P1;durP2;ratioP2;P2;SDS_P1;SDS_P2;PMS_P1;PMS_P2;Temp;Humidity;BMP_temperature;BMP_pressure;BME280_temperature;BME280_humidity;BME280_pressure;Samples;Min_cycle;Max_cycle;Signal;HPM_P1;HPM_P2
2022/04/22 00:01:21;;;;;;;5.57;4.75;;;12.90;88.20;;;;;;5053675;28;20156;-60
2022/04/22 00:03:47;;;;;;;6.30;4.50;;;12.90;88.20;;;;;;5053818;28;20057;-60
2022/04/22 00:06:13;;;;;;;5.15;4.00;;;12.80;88.30;;;;;;5054025;28;20052;-66
2022/04/22 00:08:39;;;;;;;6.30;3.88;;;12.90;88.20;;;;;;5053911;28;20461;-66
2022/04/22 00:13:50;;;;;;;4.22;3.67;;;12.80;87.90;;;;;;5054028;28;20144;-61
2022/04/22 00:16:17;;;;;;;3.75;3.45;;;12.80;88.20;;;;;;5053729;28;20490;-62
2022/04/22 00:18:43;;;;;;;5.75;3.70;;;12.80;88.00;;;;;;5053555;28;20021;-60
2022/04/22 00:21:09;;;;;;;4.00;3.60;;;12.80;88.10;;;;;;5053799;28;20029;-60
2022/04/22 00:23:35;;;;;;;4.95;3.40;;;12.80;88.20;;;;;;5053566;28;20033;-60
2022/04/22 00:26:01;;;;;;;3.92;3.55;;;12.80;88.50;;;;;;5053516;28;20389;-60
2022/04/22 00:28:27;;;;;;;3.70;3.22;;;12.80;88.50;;;;;;5053126;28;20028;-60
2022/04/22 00:30:53;;;;;;;3.58;3.28;;;12.80;88.20;;;;;;5053505;28;20017;-60
2022/04/22 00:33:18;;;;;;;4.78;3.38;;;12.80;88.10;;;;;;5053418;28;20044;-66
2022/04/22 00:35:45;;;;;;;3.47;3.13;;;12.80;87.90;;;;;;5053616;28;20039;-60
2022/04/22 00:38:11;;;;;;;4.53;3.47;;;12.80;88.20;;;;;;5053366;28;20029;-66
2022/04/22 00:40:37;;;;;;;3.95;3.28;;;12.70;88.50;;;;;;5052535;28;20070;-60
2022/04/22 00:43:21;;;;;;;5.28;3.38;;;12.80;88.70;;;;;;5053366;28;20052;-65
2022/04/22 00:45:47;;;;;;;3.85;3.42;;;12.80;88.80;;;;;;5053340;28;20029;-60
2022/04/22 00:48:14;;;;;;;5.88;3.83;;;12.80;88.60;;;;;;5052988;28;20031;-65
2022/04/22 00:50:40;;;;;;;5.78;4.50;;;12.80;88.50;;;;;;5053179;28;20466;-60
2022/04/22 00:53:07;;;;;;;6.40;4.35;;;12.70;88.50;;;;;;5053138;28;20032;-60
2022/04/22 00:55:35;;;;;;;5.70;4.60;;;12.70;88.50;;;;;;5053462;28;20029;-60
2022/04/22 00:58:02;;;;;;;5.85;4.80;;;12.70;88.70;;;;;;5051824;28;20389;-60
2022/04/22 01:00:27;;;;;;;6.82;5.20;;;12.70;88.80;;;;;;5050376;28;20049;-63
2022/04/22 01:02:54;;;;;;;6.60;5.03;;;12.70;89.00;;;;;;5050310;28;20029;-60
2022/04/22 01:10:49;;;;;;;7.50;6.00;;;12.70;89.60;;;;;;5053213;28;20078;-64
2022/04/22 01:13:16;;;;;;;7.80;6.65;;;12.70;89.50;;;;;;5052591;28;20469;-61
2022/04/22 01:15:43;;;;;;;6.50;5.28;;;12.70;89.80;;;;;;5052721;28;20386;-60
2022/04/22 01:18:09;;;;;;;8.82;5.85;;;12.70;90.00;;;;;;5052762;28;20025;-60
2022/04/22 01:20:35;;;;;;;7.75;5.70;;;12.70;90.00;;;;;;5052717;28;20024;-61
2022/04/22 01:23:00;;;;;;;6.95;5.60;;;12.80;90.10;;;;;;5052751;28;20473;-60
2022/04/22 01:25:26;;;;;;;7.18;5.63;;;12.70;90.00;;;;;;5052787;28;20032;-60
2022/04/22 01:27:52;;;;;;;5.95;5.35;;;12.80;90.00;;;;;;5052561;28;20029;-60
2022/04/22 01:30:23;;;;;;;6.30;5.40;;;12.80;90.00;;;;;;5052431;28;20025;-60
2022/04/22 01:32:56;;;;;;;8.52;5.90;;;12.70;90.00;;;;;;5052670;28;20110;-60
2022/04/22 01:35:24;;;;;;;5.38;4.88;;;12.70;90.10;;;;;;5052646;28;20127;-60
2022/04/22 01:37:50;;;;;;;12.18;5.22;;;12.70;90.10;;;;;;5052619;28;20045;-60
2022/04/22 01:40:17;;;;;;;5.35;4.85;;;12.70;90.20;;;;;;5052683;28;20103;-60
2022/04/22 01:42:43;;;;;;;6.78;4.88;;;12.70;90.20;;;;;;5052605;28;20029;-60
2022/04/22 01:45:10;;;;;;;5.70;4.28;;;12.70;90.20;;;;;;5052671;28;20477;-60
2022/04/22 01:47:36;;;;;;;6.05;4.57;;;12.70;90.30;;;;;;5052662;28;20025;-60
2022/04/22 01:50:02;;;;;;;7.13;4.10;;;12.70;90.30;;;;;;5052762;28;20025;-60
2022/04/22 01:52:29;;;;;;;4.82;3.78;;;12.70;90.20;;;;;;5056449;28;20044;-60
2022/04/22 01:54:56;;;;;;;6.13;3.78;;;12.70;90.30;;;;;;5056504;28;20021;-60
2022/04/22 01:57:22;;;;;;;10.68;2.97;;;12.70;90.30;;;;;;5056450;28;20032;-60
2022/04/22 01:59:49;;;;;;;3.85;3.05;;;12.70;90.20;;;;;;5056573;28;20025;-60
2022/04/22 02:02:18;;;;;;;4.38;3.10;;;12.70;90.20;;;;;;5056228;28;20145;-60
2022/04/22 02:04:45;;;;;;;4.07;3.00;;;12.70;90.30;;;;;;5056331;28;20074;-65
2022/04/22 02:07:11;;;;;;;4.78;3.30;;;12.80;90.30;;;;;;5056203;28;20036;-61
2022/04/22 02:09:37;;;;;;;3.30;3.00;;;12.70;90.30;;;;;;5056282;28;20458;-65
2022/04/22 02:12:07;;;;;;;3.75;3.00;;;12.70;90.30;;;;;;5056029;28;20037;-61
2022/04/22 02:14:36;;;;;;;4.75;3.33;;;12.70;90.40;;;;;;5056181;28;20021;-60
2022/04/22 02:17:01;;;;;;;4.05;3.40;;;12.70;90.50;;;;;;5055936;28;20056;-63
2022/04/22 02:19:27;;;;;;;5.45;3.03;;;12.70;90.50;;;;;;5056370;28;20445;-64
2022/04/22 02:21:53;;;;;;;4.15;3.13;;;12.70;90.80;;;;;;5055944;28;20029;-60
2022/04/22 02:24:19;;;;;;;7.70;2.55;;;12.70;90.50;;;;;;5055911;28;20055;-60
2022/04/22 02:29:29;;;;;;;3.72;2.70;;;12.70;90.60;;;;;;5056408;28;20044;-60
2022/04/22 02:31:55;;;;;;;2.90;2.42;;;12.70;90.60;;;;;;5055612;28;20436;-66
2022/04/22 02:34:22;;;;;;;4.97;1.90;;;12.70;90.50;;;;;;5055411;28;20470;-60
2022/04/22 02:36:49;;;;;;;3.13;1.83;;;12.60;90.60;;;;;;5055441;28;20017;-61
2022/04/22 02:39:15;;;;;;;3.25;1.58;;;12.70;90.50;;;;;;5055987;28;20400;-66
2022/04/22 02:47:10;;;;;;;2.20;1.58;;;12.70;90.20;;;;;;5055677;28;20043;-60
2022/04/22 02:49:35;;;;;;;3.30;1.77;;;12.60;90.30;;;;;;5055372;28;20100;-66
2022/04/22 02:52:01;;;;;;;2.47;1.42;;;12.60;90.30;;;;;;5055559;28;20072;-60
2022/04/22 02:54:30;;;;;;;2.28;1.80;;;12.60;90.30;;;;;;5055289;28;20131;-60
2022/04/22 02:56:57;;;;;;;2.17;1.77;;;12.60;90.30;;;;;;5055551;28;20033;-60
2022/04/22 02:59:24;;;;;;;3.38;2.00;;;12.60;90.30;;;;;;5055388;28;20025;-60
2022/04/22 03:01:50;;;;;;;3.10;1.90;;;12.60;90.30;;;;;;5054307;28;20481;-66
2022/04/22 03:04:16;;;;;;;2.08;1.60;;;12.60;90.50;;;;;;5055048;28;20078;-66
2022/04/22 03:06:42;;;;;;;3.22;1.75;;;12.60;90.40;;;;;;5055182;28;20052;-65
2022/04/22 03:09:07;;;;;;;2.63;1.67;;;12.60;90.50;;;;;;5055201;28;20477;-60
2022/04/22 03:11:34;;;;;;;3.05;1.80;;;12.60;90.80;;;;;;5055015;28;20125;-61
2022/04/22 03:14:03;;;;;;;4.65;1.80;;;12.60;90.60;;;;;;5054636;28;20029;-61
2022/04/22 03:16:29;;;;;;;1.63;1.50;;;12.50;90.50;;;;;;5055262;28;20155;-64
2022/04/22 03:18:55;;;;;;;2.70;1.90;;;12.50;90.50;;;;;;5054736;28;20055;-61
2022/04/22 03:21:22;;;;;;;3.00;2.05;;;12.60;90.80;;;;;;5054605;28;20104;-64
2022/04/22 03:23:48;;;;;;;2.67;1.50;;;12.60;90.60;;;;;;5054698;28;20051;-60
2022/04/22 03:26:14;;;;;;;2.83;1.40;;;12.60;90.60;;;;;;5054632;28;20033;-61
2022/04/22 03:28:40;;;;;;;4.88;1.55;;;12.60;90.60;;;;;;5054785;28;20027;-60
2022/04/22 03:31:06;;;;;;;2.38;1.52;;;12.60;90.50;;;;;;5054617;28;20032;-61
2022/04/22 03:33:31;;;;;;;2.45;1.55;;;12.50;90.50;;;;;;5054417;28;20091;-60
2022/04/22 03:35:58;;;;;;;2.33;1.63;;;12.50;90.40;;;;;;5054732;28;20104;-62
2022/04/22 03:38:24;;;;;;;2.15;1.40;;;12.50;90.30;;;;;;5054565;28;20029;-60
2022/04/22 03:40:51;;;;;;;2.13;1.25;;;12.50;90.10;;;;;;5054558;28;20375;-66
2022/04/22 03:43:19;;;;;;;3.25;1.63;;;12.50;90.10;;;;;;5053981;28;20029;-66
2022/04/22 03:45:44;;;;;;;2.63;1.20;;;12.50;90.00;;;;;;5054107;28;20021;-60
2022/04/22 03:48:13;;;;;;;2.38;1.38;;;12.50;89.90;;;;;;5054361;28;20032;-60
2022/04/22 03:50:39;;;;;;;2.28;1.50;;;12.50;89.60;;;;;;5054321;28;20163;-60
2022/04/22 03:53:06;;;;;;;2.30;1.30;;;12.40;89.60;;;;;;5054116;28;20041;-61
2022/04/22 03:55:32;;;;;;;4.13;1.60;;;12.40;89.80;;;;;;5053830;28;20036;-67
2022/04/22 03:58:11;;;;;;;3.15;1.67;;;12.40;89.70;;;;;;5054089;28;20029;-60
2022/04/22 04:00:41;;;;;;;1.80;1.42;;;12.40;89.80;;;;;;5053935;28;20512;-61
2022/04/22 04:03:11;;;;;;;3.63;1.63;;;12.40;89.80;;;;;;5054019;28;20109;-61
2022/04/22 04:05:41;;;;;;;5.30;1.83;;;12.40;90.00;;;;;;5053939;28;20020;-60
2022/04/22 04:08:10;;;;;;;5.72;1.67;;;12.40;90.00;;;;;;5053732;28;20021;-66
2022/04/22 04:16:04;;;;;;;4.13;2.00;;;12.40;90.20;;;;;;5053908;28;20117;-60
2022/04/22 04:18:32;;;;;;;3.35;1.88;;;12.40;90.30;;;;;;5053697;28;20463;-61
2022/04/22 04:23:44;;;;;;;3.50;2.00;;;12.40;90.30;;;;;;5053999;28;20074;-66
2022/04/22 04:26:11;;;;;;;6.13;2.50;;;12.40;90.60;;;;;;5053665;28;20477;-60
2022/04/22 04:28:38;;;;;;;3.03;2.40;;;12.40;91.00;;;;;;5053463;28;20386;-61
2022/04/22 04:31:06;;;;;;;3.30;2.17;;;12.40;90.90;;;;;;5053379;28;20021;-61
2022/04/22 04:33:32;;;;;;;3.10;2.35;;;12.40;91.00;;;;;;5053418;28;20037;-61
2022/04/22 04:35:59;;;;;;;4.47;2.20;;;12.40;91.10;;;;;;5053305;28;20467;-61
2022/04/22 04:38:27;;;;;;;3.08;2.10;;;12.30;91.10;;;;;;5053268;28;20070;-60
2022/04/22 04:40:53;;;;;;;5.22;2.50;;;12.30;91.10;;;;;;5053018;28;20389;-67
2022/04/22 04:43:20;;;;;;;3.13;2.22;;;12.30;91.10;;;;;;5053008;28;20497;-66
2022/04/22 04:45:46;;;;;;;3.13;2.17;;;12.30;91.20;;;;;;5053240;28;20017;-63
2022/04/22 04:48:12;;;;;;;3.15;2.35;;;12.30;91.30;;;;;;5053159;28;20025;-61
2022/04/22 04:50:43;;;;;;;5.95;2.80;;;12.20;91.30;;;;;;5053342;28;20496;-61
2022/04/22 04:53:10;;;;;;;2.67;2.30;;;12.20;91.40;;;;;;5052955;28;20037;-61
2022/04/22 04:55:35;;;;;;;4.15;2.40;;;12.30;91.40;;;;;;5053185;28;20048;-60
2022/04/22 04:58:02;;;;;;;3.45;2.40;;;12.30;91.40;;;;;;5052955;28;20488;-66
2022/04/22 05:00:28;;;;;;;5.63;2.35;;;12.30;91.40;;;;;;5052587;28;20481;-61
2022/04/22 05:02:57;;;;;;;5.85;2.75;;;12.30;91.30;;;;;;5052843;28;20040;-61
2022/04/22 05:05:23;;;;;;;3.28;2.20;;;12.30;91.30;;;;;;5052900;28;20094;-67
2022/04/22 05:07:51;;;;;;;4.75;3.35;;;12.30;91.20;;;;;;5052988;28;20037;-61
2022/04/22 05:10:18;;;;;;;4.55;2.95;;;12.30;91.20;;;;;;5053230;28;20056;-60
2022/04/22 05:12:48;;;;;;;3.90;2.40;;;12.30;90.90;;;;;;5052514;28;20044;-61
2022/04/22 05:15:15;;;;;;;2.65;2.40;;;12.30;90.40;;;;;;5052782;28;20112;-66
2022/04/22 05:17:45;;;;;;;4.63;2.22;;;12.30;90.00;;;;;;5052712;28;20074;-66
2022/04/22 05:20:12;;;;;;;3.00;2.38;;;12.30;90.10;;;;;;5052976;28;20079;-61
2022/04/22 05:22:39;;;;;;;6.07;2.40;;;12.30;90.20;;;;;;5052054;28;20068;-61
2022/04/22 05:25:07;;;;;;;4.53;2.33;;;12.20;90.10;;;;;;5051902;28;20393;-61
2022/04/22 05:27:33;;;;;;;4.65;2.05;;;12.30;90.30;;;;;;5052498;28;20611;-61
2022/04/22 05:32:47;;;;;;;2.25;1.80;;;12.20;90.10;;;;;;5052551;28;20052;-61
2022/04/22 05:35:17;;;;;;;4.10;1.90;;;12.20;89.80;;;;;;5052625;28;20041;-67
2022/04/22 05:37:53;;;;;;;3.13;1.70;;;12.20;90.00;;;;;;5052601;28;20448;-61
2022/04/22 05:40:20;;;;;;;6.88;2.38;;;12.20;90.10;;;;;;5052565;28;20370;-61
2022/04/22 05:42:47;;;;;;;4.82;2.00;;;12.10;90.10;;;;;;5052838;28;20029;-61
2022/04/22 05:45:14;;;;;;;3.10;2.00;;;12.20;90.20;;;;;;5052516;28;20024;-61
2022/04/22 05:47:41;;;;;;;2.88;2.20;;;12.10;90.30;;;;;;5052463;28;20089;-67
2022/04/22 05:50:09;;;;;;;4.63;2.15;;;12.10;90.30;;;;;;5052360;28;20037;-67
2022/04/22 05:52:37;;;;;;;5.32;1.83;;;12.10;90.40;;;;;;5052336;28;20071;-66
2022/04/22 05:55:05;;;;;;;5.50;2.10;;;12.10;90.40;;;;;;5052463;28;20467;-66
2022/04/22 05:57:32;;;;;;;5.97;2.00;;;12.20;90.50;;;;;;5052582;28;20033;-65
2022/04/22 06:00:00;;;;;;;2.42;2.15;;;12.10;90.60;;;;;;5052300;28;20062;-61
2022/04/22 06:02:26;;;;;;;3.80;2.00;;;12.20;90.70;;;;;;5052509;28;20478;-60
2022/04/22 06:04:53;;;;;;;4.60;2.40;;;12.20;90.90;;;;;;5052392;28;20029;-60
2022/04/22 06:07:19;;;;;;;2.88;2.00;;;12.20;90.90;;;;;;5052419;28;20036;-61
2022/04/22 06:12:30;;;;;;;3.22;2.25;;;12.20;91.00;;;;;;5052539;28;20134;-61
2022/04/22 06:14:59;;;;;;;3.80;2.40;;;12.20;91.00;;;;;;5052567;28;20076;-61
2022/04/22 06:17:27;;;;;;;5.78;2.50;;;12.20;91.00;;;;;;5052062;28;20025;-60
2022/04/22 06:19:52;;;;;;;2.53;2.00;;;12.20;91.10;;;;;;5052481;28;20054;-60
2022/04/22 06:22:18;;;;;;;4.03;1.90;;;12.20;91.20;;;;;;5052486;28;20039;-66
2022/04/22 06:24:44;;;;;;;3.03;1.65;;;12.20;91.20;;;;;;5052301;28;20119;-61
2022/04/22 06:27:09;;;;;;;5.18;2.38;;;12.20;91.30;;;;;;5052431;28;20033;-61
2022/04/22 06:29:36;;;;;;;4.05;1.48;;;12.20;91.30;;;;;;5051672;28;20021;-61
2022/04/22 06:32:02;;;;;;;4.00;1.30;;;12.20;91.10;;;;;;5052574;28;20107;-61
2022/04/22 06:34:28;;;;;;;2.92;1.70;;;12.20;91.10;;;;;;5052183;28;20027;-61
2022/04/22 06:36:54;;;;;;;2.95;1.48;;;12.20;91.00;;;;;;5052284;28;20107;-61
2022/04/22 06:39:20;;;;;;;3.92;1.58;;;12.20;91.00;;;;;;5055685;28;20027;-61
2022/04/22 06:47:15;;;;;;;8.07;1.40;;;12.20;90.90;;;;;;5055571;28;20094;-61
2022/04/22 06:49:41;;;;;;;2.83;1.20;;;12.20;91.00;;;;;;5055775;28;20036;-60
2022/04/22 06:52:08;;;;;;;3.08;1.13;;;12.20;91.00;;;;;;5055425;28;20037;-61
2022/04/22 06:54:34;;;;;;;1.77;1.10;;;12.20;91.00;;;;;;5055409;28;20458;-61
2022/04/22 06:57:00;;;;;;;2.90;1.10;;;12.20;91.10;;;;;;5055459;28;20025;-61
2022/04/22 06:59:26;;;;;;;1.77;1.10;;;12.20;91.30;;;;;;5055521;28;20021;-60
2022/04/22 07:01:52;;;;;;;2.67;0.82;;;12.30;91.20;;;;;;5055206;28;20056;-60
2022/04/22 07:04:18;;;;;;;1.58;0.80;;;12.30;91.10;;;;;;5055362;28;20025;-60
2022/04/22 07:06:45;;;;;;;3.50;1.05;;;12.20;91.00;;;;;;5055435;28;20045;-60
2022/04/22 07:09:11;;;;;;;1.90;1.00;;;12.30;91.10;;;;;;5055302;28;20389;-61
2022/04/22 07:11:40;;;;;;;1.77;1.17;;;12.30;91.20;;;;;;5054992;28;20033;-67
2022/04/22 07:14:07;;;;;;;1.48;0.90;;;12.30;91.10;;;;;;5055215;28;20044;-61
2022/04/22 07:16:33;;;;;;;1.70;1.00;;;12.30;91.00;;;;;;5055175;28;20393;-60
2022/04/22 07:18:59;;;;;;;2.30;1.13;;;12.20;91.00;;;;;;5055058;28;20036;-61
2022/04/22 07:21:26;;;;;;;2.05;1.27;;;12.30;91.00;;;;;;5055029;28;20032;-60
2022/04/22 07:23:53;;;;;;;1.95;0.98;;;12.20;91.10;;;;;;5055110;28;20028;-60
2022/04/22 07:26:20;;;;;;;5.13;1.27;;;12.20;91.30;;;;;;5055195;28;20028;-60
2022/04/22 07:28:48;;;;;;;4.55;1.30;;;12.30;91.50;;;;;;5054918;28;20047;-61
2022/04/22 07:31:18;;;;;;;3.45;1.60;;;12.30;91.60;;;;;;5054962;28;20563;-60
2022/04/22 07:33:44;;;;;;;2.63;1.20;;;12.30;91.70;;;;;;5054986;28;20129;-61
2022/04/22 07:36:10;;;;;;;5.22;1.60;;;12.30;91.70;;;;;;5054852;28;20092;-61
2022/04/22 07:38:36;;;;;;;3.28;1.50;;;12.30;91.70;;;;;;5054793;28;20112;-61
2022/04/22 07:41:02;;;;;;;3.97;1.67;;;12.30;91.80;;;;;;5054764;28;20017;-60
2022/04/22 07:48:57;;;;;;;56.55;34.25;;;12.30;91.90;;;;;;5054259;28;20501;-60
2022/04/22 07:51:26;;;;;;;12.55;9.90;;;12.40;92.10;;;;;;5054571;28;20373;-60
2022/04/22 07:53:53;;;;;;;4.15;2.15;;;12.40;92.10;;;;;;5054283;28;20033;-61
2022/04/22 07:56:19;;;;;;;1.55;0.73;;;12.40;92.20;;;;;;5054475;28;20033;-60
2022/04/22 07:58:45;;;;;;;0.90;0.63;;;12.40;91.90;;;;;;5054307;28;20466;-61
2022/04/22 08:01:10;;;;;;;1.67;0.68;;;12.40;91.40;;;;;;5054162;28;20053;-67
2022/04/22 08:03:36;;;;;;;1.25;0.35;;;12.30;91.30;;;;;;5054260;28;20036;-61
2022/04/22 08:06:03;;;;;;;1.30;0.50;;;12.30;91.10;;;;;;5054261;28;20405;-60
2022/04/22 08:08:30;;;;;;;0.50;0.50;;;12.30;91.00;;;;;;5054289;28;20053;-60
2022/04/22 08:10:57;;;;;;;2.30;0.55;;;12.30;90.80;;;;;;5054033;28;20040;-60
2022/04/22 08:13:24;;;;;;;0.60;0.30;;;12.30;90.60;;;;;;5054094;28;20124;-60
2022/04/22 08:15:50;;;;;;;2.67;0.60;;;12.30;90.50;;;;;;5053954;28;20098;-61
2022/04/22 08:18:16;;;;;;;0.50;0.50;;;12.20;90.50;;;;;;5054479;28;20021;-60
2022/04/22 08:20:42;;;;;;;1.50;0.38;;;12.20;90.70;;;;;;5053796;28;20017;-60
2022/04/22 08:23:07;;;;;;;2.25;0.50;;;12.20;90.70;;;;;;5054047;28;20507;-60
2022/04/22 08:25:33;;;;;;;2.00;0.40;;;12.20;90.60;;;;;;5053774;28;20029;-60
2022/04/22 08:27:59;;;;;;;1.00;0.30;;;12.20;90.60;;;;;;5053846;28;20017;-60
2022/04/22 08:30:26;;;;;;;0.82;0.40;;;12.20;90.70;;;;;;5053587;28;20029;-61
2022/04/22 08:32:51;;;;;;;0.55;0.40;;;12.20;90.70;;;;;;5053534;28;20040;-60
2022/04/22 08:35:17;;;;;;;2.80;0.60;;;12.20;90.60;;;;;;5053763;28;20469;-61
2022/04/22 08:37:45;;;;;;;0.77;0.47;;;12.20;90.50;;;;;;5053759;28;20028;-60
2022/04/22 08:40:11;;;;;;;1.17;0.88;;;12.30;90.60;;;;;;5053697;28;20029;-61
2022/04/22 08:42:39;;;;;;;5.82;0.50;;;12.30;90.70;;;;;;5053694;28;20024;-60
2022/04/22 08:45:09;;;;;;;1.10;0.40;;;12.30;90.60;;;;;;5053325;28;20068;-60
2022/04/22 08:50:21;;;;;;;0.68;0.30;;;12.30;90.40;;;;;;5053793;28;20040;-60
2022/04/22 08:53:17;;;;;;;2.08;0.70;;;12.30;90.40;;;;;;5053459;28;20037;-60
2022/04/22 08:55:44;;;;;;;0.93;0.40;;;12.40;90.50;;;;;;5053235;28;20033;-61
2022/04/22 08:58:10;;;;;;;2.58;0.55;;;12.30;90.60;;;;;;5053455;28;20053;-61
2022/04/22 09:00:37;;;;;;;0.85;0.70;;;12.40;90.70;;;;;;5052332;28;20053;-61
2022/04/22 09:03:04;;;;;;;1.02;0.60;;;12.40;90.80;;;;;;5053239;28;20032;-61
2022/04/22 09:05:31;;;;;;;4.40;1.05;;;12.40;91.30;;;;;;5053147;28;20469;-66
2022/04/22 09:07:57;;;;;;;3.22;1.10;;;12.40;91.30;;;;;;5053604;28;20029;-61
2022/04/22 09:10:23;;;;;;;1.25;0.63;;;12.40;91.40;;;;;;5053149;28;20025;-61
2022/04/22 09:12:54;;;;;;;2.58;1.00;;;12.40;91.20;;;;;;5053236;28;20087;-61
2022/04/22 09:15:25;;;;;;;2.20;1.90;;;12.40;91.30;;;;;;5052974;28;20535;-61
2022/04/22 09:17:57;;;;;;;2.38;1.80;;;12.40;91.30;;;;;;5052999;28;20032;-60
2022/04/22 09:20:30;;;;;;;2.47;1.20;;;12.40;91.30;;;;;;5053209;28;20029;-61
2022/04/22 09:22:57;;;;;;;;;;;12.40;91.30;;;;;;5053425;28;20032;-61
2022/04/22 09:25:25;;;;;;;1.35;0.90;;;12.40;91.30;;;;;;5052970;28;19904;-61
2022/04/22 09:27:51;;;;;;;1.88;0.82;;;12.40;91.30;;;;;;5053009;28;20070;-61
2022/04/22 09:30:17;;;;;;;1.98;0.70;;;12.40;91.50;;;;;;5052966;28;20036;-61
2022/04/22 09:32:44;;;;;;;2.22;0.70;;;12.40;91.70;;;;;;5052898;28;20478;-61
2022/04/22 09:42:38;;;;;;;1.58;0.73;;;12.50;91.80;;;;;;5052953;28;20064;-60
2022/04/22 09:43:51;;;;;;;1.65;0.57;;;12.50;92.20;;;;;;5052622;28;20036;-61
2022/04/22 09:46:27;;;;;;;0.98;0.60;;;12.50;92.20;;;;;;5052705;28;20100;-60
2022/04/22 09:48:54;;;;;;;4.28;0.90;;;12.60;92.10;;;;;;5052511;28;20025;-60
2022/04/22 09:51:27;;;;;;;1.58;0.60;;;12.60;92.10;;;;;;5051588;28;20393;-60
2022/04/22 09:54:02;;;;;;;0.93;0.68;;;12.60;92.30;;;;;;5051967;28;20037;-60
2022/04/22 09:56:28;;;;;;;1.10;0.70;;;12.60;92.30;;;;;;5052441;28;20021;-61
2022/04/22 09:58:55;;;;;;;2.90;0.90;;;12.60;92.40;;;;;;5051909;28;20040;-60
2022/04/22 10:01:24;;;;;;;3.60;1.10;;;12.70;92.30;;;;;;5052418;28;20448;-60
2022/04/22 10:03:50;;;;;;;1.67;1.00;;;12.70;92.40;;;;;;5052158;28;20036;-61
2022/04/22 10:06:18;;;;;;;3.60;1.23;;;12.70;92.40;;;;;;5052185;28;20474;-60
2022/04/22 10:08:46;;;;;;;3.13;1.02;;;12.70;92.50;;;;;;5051995;28;20162;-61
2022/04/22 10:11:15;;;;;;;1.85;1.00;;;12.70;92.60;;;;;;5051804;28;20045;-59
2022/04/22 10:13:44;;;;;;;2.33;1.00;;;12.80;92.80;;;;;;5055490;28;20469;-61
2022/04/22 10:16:10;;;;;;;2.88;0.90;;;12.80;92.70;;;;;;5055224;28;20021;-63
2022/04/22 10:18:38;;;;;;;1.55;1.00;;;12.80;92.10;;;;;;5055207;28;20107;-60
2022/04/22 10:21:04;;;;;;;2.85;1.08;;;12.80;91.80;;;;;;5055795;28;20017;-60
2022/04/22 10:23:31;;;;;;;4.68;1.35;;;12.80;91.70;;;;;;5056084;28;20036;-61
2022/04/22 10:25:58;;;;;;;2.47;1.05;;;12.80;91.80;;;;;;5056107;28;20465;-61
2022/04/22 10:28:26;;;;;;;1.88;1.20;;;12.90;92.00;;;;;;5056159;28;20111;-61
2022/04/22 10:30:54;;;;;;;2.72;1.40;;;12.90;92.00;;;;;;5055659;28;20021;-61
2022/04/22 10:33:25;;;;;;;3.25;1.60;;;12.90;92.10;;;;;;5055827;28;20048;-61
2022/04/22 10:35:59;;;;;;;4.90;1.17;;;12.90;92.10;;;;;;5055294;28;20040;-61
2022/04/22 10:38:38;;;;;;;3.97;1.30;;;12.90;92.10;;;;;;5054931;28;20033;-61
2022/04/22 10:41:12;;;;;;;2.78;1.52;;;13.00;92.10;;;;;;5055131;28;20385;-61
2022/04/22 10:43:39;;;;;;;7.03;1.70;;;13.00;92.70;;;;;;5055164;28;20017;-60
2022/04/22 10:49:13;;;;;;;2.00;1.63;;;13.10;92.40;;;;;;5053171;28;20090;-61
2022/04/22 10:52:02;;;;;;;2.97;1.92;;;13.10;92.30;;;;;;5054341;28;20029;-60
2022/04/22 10:54:53;;;;;;;3.95;1.48;;;13.10;92.60;;;;;;5053864;28;20036;-64
2022/04/22 10:57:27;;;;;;;1.88;1.23;;;13.10;93.20;;;;;;5034451;28;20041;-65
2022/04/22 11:00:07;;;;;;;2.72;1.50;;;13.10;92.90;;;;;;5034325;28;20090;-65
2022/04/22 11:02:34;;;;;;;2.97;1.38;;;13.10;93.10;;;;;;5034193;28;20041;-61
2022/04/22 11:05:20;;;;;;;2.67;1.58;;;13.10;93.20;;;;;;5034653;28;20103;-61
2022/04/22 11:07:58;;;;;;;4.75;1.85;;;13.10;93.10;;;;;;5049338;28;20120;-60
2022/04/22 11:10:49;;;;;;;2.88;2.15;;;13.10;93.10;;;;;;5054787;28;20025;-65
2022/04/22 11:13:52;;;;;;;3.45;2.17;;;13.10;92.90;;;;;;5051003;28;20508;-61
2022/04/22 11:16:24;;;;;;;3.25;2.38;;;13.20;92.60;;;;;;5029834;28;20552;-67
2022/04/22 11:19:23;;;;;;;3.42;2.50;;;13.20;92.10;;;;;;5053407;28;20029;-66
2022/04/22 11:21:53;;;;;;;5.32;2.40;;;13.20;92.30;;;;;;5054931;28;20377;-66
2022/04/22 11:24:21;;;;;;;4.95;2.70;;;13.20;92.00;;;;;;5053445;28;20028;-65
2022/04/22 11:26:47;;;;;;;4.55;2.42;;;13.30;91.90;;;;;;5054587;28;20577;-64
2022/04/22 11:29:15;;;;;;;4.90;2.20;;;13.30;91.80;;;;;;5054673;28;20108;-62
2022/04/22 11:31:56;;;;;;;3.92;1.98;;;13.30;91.70;;;;;;5054475;28;20489;-60
2022/04/22 11:34:50;;;;;;;6.13;2.30;;;13.30;91.60;;;;;;5054239;28;20037;-60
2022/04/22 11:37:21;;;;;;;5.95;2.10;;;13.40;91.80;;;;;;5054058;28;20044;-60
2022/04/22 11:39:48;;;;;;;5.68;2.50;;;13.40;92.10;;;;;;5050936;28;20117;-65
2022/04/22 11:42:16;;;;;;;3.42;2.03;;;13.40;91.80;;;;;;5051562;28;20400;-61
2022/04/22 11:44:42;;;;;;;3.33;2.28;;;13.50;91.80;;;;;;5052919;28;20025;-60
2022/04/22 11:47:08;;;;;;;6.10;2.50;;;13.50;91.90;;;;;;5053427;28;20032;-60
2022/04/22 11:49:34;;;;;;;4.80;2.92;;;13.50;91.70;;;;;;5053762;28;20143;-60
2022/04/22 11:52:00;;;;;;;3.28;2.22;;;13.50;91.90;;;;;;5053518;28;20017;-66
2022/04/22 11:54:26;;;;;;;3.95;1.63;;;13.60;92.10;;;;;;5053892;28;20024;-61
2022/04/22 11:56:53;;;;;;;5.78;1.80;;;13.60;92.10;;;;;;5053192;28;20098;-60
2022/04/22 11:59:22;;;;;;;4.25;2.50;;;13.70;92.00;;;;;;5051217;28;20036;-60
2022/04/22 12:05:32;;;;;;;8.30;2.00;;;13.80;91.90;;;;;;5054081;28;20036;-60
2022/04/22 12:10:12;;;;;;;4.70;2.15;;;13.90;91.40;;;;;;5053750;28;20191;-59
2022/04/22 12:12:51;;;;;;;3.45;1.88;;;13.90;91.60;;;;;;5053598;28;20029;-60
2022/04/22 12:15:19;;;;;;;5.75;2.00;;;13.90;91.50;;;;;;5053644;28;20075;-61
2022/04/22 12:17:46;;;;;;;2.30;1.70;;;14.00;91.20;;;;;;5053089;28;20025;-60
2022/04/22 12:20:12;;;;;;;4.43;1.52;;;14.00;90.50;;;;;;5053686;28;20037;-61
2022/04/22 12:22:38;;;;;;;4.03;1.65;;;14.00;90.10;;;;;;5053669;28;20390;-60
2022/04/22 12:25:08;;;;;;;3.90;1.60;;;14.10;90.30;;;;;;5053439;28;20037;-62
2022/04/22 12:27:33;;;;;;;2.80;1.77;;;14.10;90.70;;;;;;5051876;28;20486;-60
2022/04/22 12:30:04;;;;;;;4.72;1.60;;;14.20;90.50;;;;;;5050936;28;20052;-61
2022/04/22 12:32:31;;;;;;;7.00;1.60;;;14.30;90.30;;;;;;5050986;28;20041;-62
2022/04/22 12:35:12;;;;;;;2.80;1.38;;;14.40;90.50;;;;;;5051145;28;20478;-61
2022/04/22 12:37:56;;;;;;;3.33;1.80;;;14.50;90.30;;;;;;5051521;28;20040;-60
2022/04/22 12:40:22;;;;;;;4.70;1.30;;;14.70;90.10;;;;;;5051514;28;20025;-60
2022/04/22 12:42:50;;;;;;;2.45;1.60;;;14.90;90.00;;;;;;5052387;28;20021;-60
2022/04/22 12:53:50;;;;;;;4.90;1.63;;;15.50;87.20;;;;;;5052783;28;20087;-62
2022/04/22 12:56:24;;;;;;;2.70;1.17;;;15.50;87.50;;;;;;5053021;28;20390;-65
2022/04/22 12:58:50;;;;;;;2.40;1.48;;;15.50;88.10;;;;;;5052970;28;20025;-60
2022/04/22 13:01:36;;;;;;;3.10;1.30;;;15.50;88.10;;;;;;5052481;28;20049;-66
2022/04/22 13:04:04;;;;;;;4.88;1.60;;;15.60;87.20;;;;;;5052175;28;20029;-64
2022/04/22 13:06:49;;;;;;;3.15;1.38;;;15.60;86.80;;;;;;5051284;28;20410;-62
2022/04/22 13:09:17;;;;;;;3.50;1.30;;;15.70;86.50;;;;;;5052078;28;20025;-67
2022/04/22 13:11:43;;;;;;;3.95;1.10;;;15.90;86.00;;;;;;5051764;28;20029;-61
2022/04/22 13:14:10;;;;;;;2.70;1.27;;;16.00;84.10;;;;;;5052536;28;20068;-66
2022/04/22 13:16:36;;;;;;;2.05;1.10;;;16.00;83.10;;;;;;5052563;28;20078;-66
2022/04/22 13:19:02;;;;;;;1.40;1.05;;;16.00;83.30;;;;;;5052419;28;20021;-64
2022/04/22 13:21:28;;;;;;;1.75;0.82;;;16.00;83.70;;;;;;5052687;28;20029;-60
2022/04/22 13:23:54;;;;;;;2.65;0.80;;;16.00;81.70;;;;;;5052640;28;20032;-62
2022/04/22 13:26:20;;;;;;;1.42;0.63;;;15.90;81.60;;;;;;5027735;28;20041;-67
2022/04/22 13:28:48;;;;;;;1.45;0.70;;;15.90;81.60;;;;;;5052497;28;20025;-67
2022/04/22 13:31:14;;;;;;;5.43;0.70;;;15.80;79.70;;;;;;5052334;28;20063;-67
2022/04/22 13:33:40;;;;;;;4.00;0.60;;;15.80;78.90;;;;;;5052476;28;20044;-66
2022/04/22 13:36:11;;;;;;;1.95;0.73;;;15.70;79.00;;;;;;5051589;28;20373;-67
2022/04/22 13:38:37;;;;;;;1.60;0.63;;;15.60;79.50;;;;;;5052287;28;20104;-66
2022/04/22 13:41:05;;;;;;;2.50;0.63;;;15.60;80.70;;;;;;5051670;28;20433;-61
2022/04/22 13:43:32;;;;;;;4.55;0.80;;;15.60;81.70;;;;;;5051837;28;20025;-61
2022/04/22 13:54:11;;;;;;;3.50;0.82;;;15.50;80.90;;;;;;5056537;28;20072;-61
2022/04/22 13:56:36;;;;;;;1.77;0.77;;;15.50;78.40;;;;;;5054874;28;20057;-61
2022/04/22 13:59:02;;;;;;;2.70;0.90;;;15.50;77.40;;;;;;5055009;28;20025;-66
2022/04/22 14:01:28;;;;;;;5.55;1.20;;;15.50;77.10;;;;;;5055089;28;20057;-62
2022/04/22 14:03:54;;;;;;;3.35;1.13;;;15.50;77.50;;;;;;5055771;28;20392;-61
2022/04/22 14:06:20;;;;;;;1.90;0.80;;;15.50;77.30;;;;;;5055680;28;20063;-61
2022/04/22 14:08:45;;;;;;;4.53;1.10;;;15.50;77.20;;;;;;5055616;28;20033;-65